createdAt,value
2018-06-12T00:00:11.847Z,3.23
2018-06-12T00:02:41.312Z,3.63
2018-06-12T00:05:10.820Z,4.33
2018-06-12T00:07:40.418Z,4.87
2018-06-12T00:10:09.911Z,3.93
2018-06-12T00:12:39.475Z,3.33
2018-06-12T00:15:08.668Z,3.80
2018-06-12T00:17:37.974Z,4.80
2018-06-12T00:20:07.458Z,5.57
2018-06-12T00:22:36.935Z,6.37
2018-06-12T00:25:06.398Z,4.40
2018-06-12T00:27:35.914Z,4.43
2018-06-12T00:30:05.468Z,3.83
2018-06-12T00:32:34.958Z,7.27
2018-06-12T00:35:04.505Z,3.47
2018-06-12T00:37:33.971Z,3.53
2018-06-12T00:40:03.460Z,6.60
2018-06-12T00:42:32.915Z,3.50
2018-06-12T00:45:02.386Z,3.73
2018-06-12T00:47:31.898Z,4.23
2018-06-12T00:50:01.402Z,4.00
2018-06-12T00:52:30.892Z,3.40
2018-06-12T00:55:00.346Z,3.90
2018-06-12T00:57:29.829Z,3.53
2018-06-12T00:59:59.363Z,3.23
2018-06-12T01:02:28.831Z,4.80
2018-06-12T01:04:58.303Z,4.30
2018-06-12T01:07:27.770Z,4.50
2018-06-12T01:09:57.223Z,2.83
2018-06-12T01:12:26.706Z,5.20
2018-06-12T01:14:56.131Z,4.27
2018-06-12T01:17:25.606Z,3.73
2018-06-12T01:19:55.083Z,7.40
2018-06-12T01:22:24.549Z,3.97
2018-06-12T01:24:54.033Z,4.00
2018-06-12T01:27:23.550Z,4.00
2018-06-12T01:29:53.107Z,4.67
2018-06-12T01:32:22.580Z,6.73
2018-06-12T01:34:52.105Z,4.30
2018-06-12T01:37:21.599Z,5.73
2018-06-12T01:39:51.086Z,4.27
2018-06-12T01:42:20.547Z,9.03
2018-06-12T01:44:49.995Z,4.53
2018-06-12T01:47:19.475Z,5.40
2018-06-12T01:49:49.011Z,5.67
2018-06-12T01:52:18.503Z,5.27
2018-06-12T01:54:47.984Z,4.63
2018-06-12T01:57:17.451Z,4.00
2018-06-12T01:59:46.957Z,4.07
2018-06-12T02:02:16.427Z,6.30
2018-06-12T02:04:45.889Z,4.23
2018-06-12T02:07:15.393Z,4.57
2018-06-12T02:09:44.830Z,4.23
2018-06-12T02:12:14.289Z,11.97
2018-06-12T02:14:43.763Z,3.70
2018-06-12T02:17:13.215Z,5.10
2018-06-12T02:19:42.716Z,4.27
2018-06-12T02:22:12.217Z,5.83
2018-06-12T02:24:41.778Z,4.77
2018-06-12T02:27:11.259Z,8.90
2018-06-12T02:29:40.727Z,6.10
2018-06-12T02:32:10.183Z,5.20
2018-06-12T02:34:39.665Z,6.63
2018-06-12T02:37:09.140Z,5.83
2018-06-12T02:39:38.627Z,4.90
2018-06-12T02:42:08.134Z,7.57
2018-06-12T02:44:37.698Z,5.63
2018-06-12T02:47:07.064Z,7.70
2018-06-12T02:49:36.711Z,5.13
2018-06-12T02:52:06.471Z,6.93
2018-06-12T02:54:35.961Z,6.40
2018-06-12T02:57:05.538Z,5.47
2018-06-12T02:59:34.970Z,8.20
2018-06-12T03:02:04.952Z,5.60
2018-06-12T03:04:34.452Z,5.20
2018-06-12T03:07:03.986Z,5.83
2018-06-12T03:09:33.471Z,9.53
2018-06-12T03:12:03.031Z,10.13
2018-06-12T03:14:32.531Z,7.00
2018-06-12T03:17:01.987Z,8.93
2018-06-12T03:19:31.455Z,8.20
2018-06-12T03:22:00.951Z,10.47
2018-06-12T03:24:30.470Z,8.70
2018-06-12T03:26:59.982Z,9.67
2018-06-12T03:29:29.450Z,8.70
2018-06-12T03:31:58.944Z,10.63
2018-06-12T03:34:28.143Z,11.27
2018-06-12T03:36:57.466Z,9.70
2018-06-12T03:39:26.947Z,13.80
2018-06-12T03:41:56.424Z,12.30
2018-06-12T03:44:25.906Z,9.37
2018-06-12T03:46:55.346Z,10.70
2018-06-12T03:49:24.989Z,12.30
2018-06-12T03:51:54.488Z,11.80
2018-06-12T03:54:23.983Z,10.87
2018-06-12T03:56:53.508Z,16.87
2018-06-12T03:59:23.012Z,11.17
2018-06-12T04:01:52.518Z,13.17
2018-06-12T04:04:22.050Z,12.23
2018-06-12T04:06:52.930Z,12.40
2018-06-12T04:09:22.510Z,12.30
2018-06-12T04:11:52.010Z,13.43
2018-06-12T04:14:21.519Z,14.10
2018-06-12T04:16:51.213Z,13.40
2018-06-12T04:19:20.702Z,13.33
2018-06-12T04:21:50.195Z,12.07
2018-06-12T04:24:19.710Z,13.07
2018-06-12T04:26:49.391Z,13.87
2018-06-12T04:29:18.878Z,15.90
2018-06-12T04:31:48.359Z,15.13
2018-06-12T04:34:17.847Z,14.37
2018-06-12T04:36:47.350Z,14.33
2018-06-12T04:39:16.829Z,14.73
2018-06-12T04:41:46.330Z,16.07
2018-06-12T04:44:15.838Z,15.20
2018-06-12T04:46:45.328Z,17.40
2018-06-12T04:49:14.832Z,15.43
2018-06-12T04:51:44.323Z,17.43
2018-06-12T04:54:13.816Z,14.37
2018-06-12T04:56:43.307Z,14.30
2018-06-12T04:59:12.835Z,13.37
2018-06-12T05:01:42.380Z,15.97
2018-06-12T05:04:11.922Z,12.80
2018-06-12T05:06:41.483Z,13.43
2018-06-12T05:09:11.015Z,11.60
2018-06-12T05:11:40.520Z,13.93
2018-06-12T05:14:10.047Z,12.57
2018-06-12T05:16:39.549Z,13.40
2018-06-12T05:19:09.023Z,12.27
2018-06-12T05:21:38.531Z,11.00
2018-06-12T05:24:08.022Z,12.53
2018-06-12T05:26:37.624Z,11.93
2018-06-12T05:29:07.143Z,11.63
2018-06-12T05:31:36.748Z,14.10
2018-06-12T05:34:06.236Z,11.17
2018-06-12T05:36:35.728Z,15.10
2018-06-12T05:39:09.012Z,13.67
2018-06-12T05:41:39.407Z,11.77
2018-06-12T05:44:08.945Z,12.83
2018-06-12T05:46:38.415Z,10.80
2018-06-12T05:49:07.958Z,13.93
2018-06-12T05:51:37.501Z,12.80
2018-06-12T05:54:07.017Z,14.80
2018-06-12T05:56:36.734Z,10.80
2018-06-12T05:59:06.240Z,12.17
2018-06-12T06:01:35.769Z,15.13
2018-06-12T06:04:05.258Z,11.80
2018-06-12T06:06:34.764Z,15.07
2018-06-12T06:09:05.948Z,12.30
2018-06-12T06:11:35.931Z,11.07
2018-06-12T06:14:05.494Z,13.40
2018-06-12T06:16:35.163Z,12.97
2018-06-12T06:19:04.729Z,12.07
2018-06-12T06:21:34.254Z,9.40
2018-06-12T06:24:04.133Z,12.40
2018-06-12T06:26:33.655Z,11.07
2018-06-12T06:29:03.214Z,10.90
2018-06-12T06:31:32.722Z,8.63
2018-06-12T06:34:02.198Z,8.93
2018-06-12T06:36:31.666Z,9.40
2018-06-12T06:39:01.180Z,7.90
2018-06-12T06:41:30.808Z,12.00
2018-06-12T06:44:00.319Z,10.07
2018-06-12T06:46:29.831Z,12.40
2018-06-12T06:48:59.298Z,8.13
2018-06-12T06:51:28.786Z,10.73
2018-06-12T06:53:58.329Z,10.90
2018-06-12T06:56:27.876Z,8.10
2018-06-12T06:58:57.372Z,8.20
2018-06-12T07:01:26.910Z,7.63
2018-06-12T07:03:56.431Z,5.73
2018-06-12T07:06:25.912Z,6.17
2018-06-12T07:08:55.427Z,5.97
2018-06-12T07:11:24.939Z,6.20
2018-06-12T07:13:54.431Z,6.00
2018-06-12T07:16:24.003Z,7.63
2018-06-12T07:18:53.587Z,7.67
2018-06-12T07:21:24.358Z,7.67
2018-06-12T07:23:53.890Z,7.80
2018-06-12T07:26:23.368Z,7.57
2018-06-12T07:28:52.851Z,6.33
2018-06-12T07:31:22.386Z,10.17
2018-06-12T07:33:51.883Z,9.53
2018-06-12T07:36:21.116Z,6.90
2018-06-12T07:38:50.441Z,9.80
2018-06-12T07:41:19.928Z,6.27
2018-06-12T07:43:49.429Z,7.97
2018-06-12T07:46:19.042Z,4.80
2018-06-12T07:48:48.598Z,7.20
2018-06-12T07:51:18.083Z,4.20
2018-06-12T07:53:47.563Z,4.37
2018-06-12T07:56:17.081Z,4.47
2018-06-12T07:58:46.593Z,5.37
2018-06-12T08:01:16.071Z,4.67
2018-06-12T08:03:45.657Z,4.40
2018-06-12T08:06:15.213Z,4.10
2018-06-12T08:08:44.776Z,6.00
2018-06-12T08:11:14.284Z,5.90
2018-06-12T08:13:43.823Z,5.50
2018-06-12T08:16:13.323Z,7.87
2018-06-12T08:18:42.845Z,6.10
2018-06-12T08:21:12.329Z,6.00
2018-06-12T08:23:41.902Z,4.83
2018-06-12T08:26:11.414Z,3.80
2018-06-12T08:28:40.938Z,3.40
2018-06-12T08:31:10.461Z,3.70
2018-06-12T08:33:39.934Z,4.87
2018-06-12T08:36:09.432Z,4.07
2018-06-12T08:38:38.946Z,4.13
2018-06-12T08:41:08.494Z,9.87
2018-06-12T08:43:38.079Z,4.57
2018-06-12T08:46:07.554Z,4.47
2018-06-12T08:48:37.110Z,5.13
2018-06-12T08:51:06.865Z,5.57
2018-06-12T08:53:36.421Z,4.80
2018-06-12T08:56:05.936Z,3.27
2018-06-12T08:58:35.478Z,6.60
2018-06-12T09:01:04.995Z,4.33
2018-06-12T09:03:34.503Z,6.90
2018-06-12T09:06:04.053Z,4.40
2018-06-12T09:08:33.541Z,3.03
2018-06-12T09:11:03.013Z,4.47
2018-06-12T09:13:32.566Z,2.77
2018-06-12T09:16:02.051Z,4.77
2018-06-12T09:18:31.549Z,4.70
2018-06-12T09:21:01.108Z,2.93
2018-06-12T09:23:30.642Z,6.03
2018-06-12T09:26:00.278Z,3.33
2018-06-12T09:28:29.839Z,4.13
2018-06-12T09:30:59.311Z,4.50
2018-06-12T09:33:28.829Z,4.03
2018-06-12T09:36:03.608Z,3.70
2018-06-12T09:38:33.120Z,4.23
2018-06-12T09:41:02.640Z,4.20
2018-06-12T09:43:32.107Z,6.10
2018-06-12T09:46:01.574Z,3.20
2018-06-12T09:48:31.095Z,2.20
2018-06-12T09:51:00.597Z,4.87
2018-06-12T09:53:30.138Z,6.13
2018-06-12T09:55:59.989Z,4.43
2018-06-12T09:58:29.452Z,5.33
2018-06-12T10:01:04.537Z,4.87
2018-06-12T10:03:34.042Z,3.40
2018-06-12T10:06:03.518Z,6.30
2018-06-12T10:08:33.035Z,6.73
2018-06-12T10:11:02.557Z,2.40
2018-06-12T10:13:32.034Z,5.20
2018-06-12T10:16:01.492Z,4.10
2018-06-12T10:18:31.059Z,4.60
2018-06-12T10:21:00.531Z,2.73
2018-06-12T10:23:29.759Z,3.37
2018-06-12T10:25:59.126Z,6.37
2018-06-12T10:28:28.594Z,3.60
2018-06-12T10:30:58.118Z,8.53
2018-06-12T10:33:27.592Z,4.30
2018-06-12T10:35:57.097Z,3.60
2018-06-12T10:38:26.650Z,2.50
2018-06-12T10:40:56.129Z,5.13
2018-06-12T10:43:25.757Z,4.10
2018-06-12T10:45:55.261Z,4.83
2018-06-12T10:48:24.820Z,6.60
2018-06-12T10:50:54.303Z,7.60
2018-06-12T10:53:23.799Z,4.10
2018-06-12T10:55:53.291Z,7.37
2018-06-12T10:58:22.791Z,3.47
2018-06-12T11:00:52.314Z,5.70
2018-06-12T11:03:21.827Z,3.87
2018-06-12T11:05:51.342Z,5.43
2018-06-12T11:08:20.835Z,4.57
2018-06-12T11:10:50.389Z,4.63
2018-06-12T11:13:19.845Z,4.70
2018-06-12T11:15:49.433Z,6.13
2018-06-12T11:18:18.983Z,3.67
2018-06-12T11:20:48.558Z,4.60
2018-06-12T11:23:18.052Z,4.90
2018-06-12T11:25:47.619Z,2.80
2018-06-12T11:28:17.170Z,3.03
2018-06-12T11:30:46.730Z,6.07
2018-06-12T11:33:15.968Z,3.53
2018-06-12T11:35:45.334Z,3.43
2018-06-12T11:38:14.911Z,4.83
2018-06-12T11:40:45.643Z,3.50
2018-06-12T11:43:15.204Z,6.33
2018-06-12T11:45:44.830Z,4.43
2018-06-12T11:48:14.373Z,3.97
2018-06-12T11:50:43.937Z,3.20
2018-06-12T11:53:13.456Z,3.53
2018-06-12T11:55:43.006Z,3.93
2018-06-12T11:58:12.487Z,3.60
2018-06-12T12:00:42.039Z,3.67
2018-06-12T12:03:11.661Z,4.27
2018-06-12T12:05:41.184Z,5.07
2018-06-12T12:08:10.716Z,3.03
2018-06-12T12:10:40.233Z,4.17
2018-06-12T12:13:09.936Z,3.60
2018-06-12T12:15:39.432Z,6.43
2018-06-12T12:18:08.973Z,3.27
2018-06-12T12:20:38.466Z,3.03
2018-06-12T12:23:07.983Z,4.83
2018-06-12T12:25:37.607Z,4.40
2018-06-12T12:28:07.231Z,3.77
2018-06-12T12:30:36.767Z,3.40
2018-06-12T12:33:06.667Z,4.77
2018-06-12T12:35:36.222Z,3.30
2018-06-12T12:38:06.170Z,3.83
2018-06-12T12:40:35.702Z,4.73
2018-06-12T12:43:04.986Z,3.37
2018-06-12T12:45:34.313Z,3.17
2018-06-12T12:48:03.840Z,5.70
2018-06-12T12:50:33.366Z,3.83
2018-06-12T12:53:02.918Z,3.70
2018-06-12T12:55:32.450Z,3.20
2018-06-12T12:58:01.986Z,5.63
2018-06-12T13:00:31.557Z,3.40
2018-06-12T13:03:01.129Z,3.53
2018-06-12T13:05:30.663Z,5.80
2018-06-12T13:08:00.239Z,3.30
2018-06-12T13:10:29.759Z,3.10
2018-06-12T13:12:59.310Z,8.20
2018-06-12T13:15:28.853Z,2.60
2018-06-12T13:17:58.377Z,5.03
2018-06-12T13:20:27.936Z,3.67
2018-06-12T13:22:57.472Z,4.73
2018-06-12T13:25:27.024Z,4.13
2018-06-12T13:27:56.629Z,5.03
2018-06-12T13:30:26.205Z,4.80
2018-06-12T13:32:55.688Z,4.73
2018-06-12T13:35:25.217Z,7.27
2018-06-12T13:37:54.439Z,6.97
2018-06-12T13:40:23.801Z,7.33
2018-06-12T13:42:53.342Z,5.30
2018-06-12T13:45:22.815Z,4.20
2018-06-12T13:47:52.326Z,2.93
2018-06-12T13:50:21.823Z,4.70
2018-06-12T13:52:51.382Z,6.83
2018-06-12T13:55:20.876Z,7.63
2018-06-12T13:57:50.400Z,4.50
2018-06-12T14:00:19.883Z,6.87
2018-06-12T14:02:49.428Z,5.03
2018-06-12T14:05:18.899Z,6.03
2018-06-12T14:07:48.436Z,5.23
2018-06-12T14:10:17.974Z,7.00
2018-06-12T14:12:47.523Z,5.70
2018-06-12T14:15:17.044Z,4.60
2018-06-12T14:17:46.571Z,6.10
2018-06-12T14:20:16.149Z,4.57
2018-06-12T14:22:45.687Z,4.20
2018-06-12T14:25:16.232Z,6.57
2018-06-12T14:27:45.744Z,1.30
2018-06-12T14:30:15.284Z,4.13
2018-06-12T14:32:44.846Z,4.63
2018-06-12T14:35:14.395Z,3.07
2018-06-12T14:37:43.934Z,1.83
2018-06-12T14:40:13.472Z,3.37
2018-06-12T14:42:43.143Z,4.93
2018-06-12T14:45:12.635Z,4.77
2018-06-12T14:47:42.158Z,6.70
2018-06-12T14:50:11.708Z,9.97
2018-06-12T14:52:41.274Z,3.90
2018-06-12T14:55:10.787Z,3.83
2018-06-12T14:57:40.324Z,7.27
2018-06-12T15:00:09.874Z,5.13
2018-06-12T15:02:39.393Z,11.77
2018-06-12T15:05:08.970Z,6.73
2018-06-12T15:07:38.488Z,7.43
2018-06-12T15:10:08.048Z,6.57
2018-06-12T15:12:37.597Z,4.63
2018-06-12T15:15:07.068Z,5.53
2018-06-12T15:17:36.563Z,7.40
2018-06-12T15:20:06.109Z,2.63
2018-06-12T15:22:35.595Z,5.90
2018-06-12T15:25:05.160Z,4.67
2018-06-12T15:27:34.741Z,4.07
2018-06-12T15:30:05.057Z,4.53
2018-06-12T15:32:34.577Z,6.20
2018-06-12T15:35:04.470Z,6.80
2018-06-12T15:37:34.136Z,9.40
2018-06-12T15:40:04.039Z,7.23
2018-06-12T15:42:33.946Z,6.90
2018-06-12T15:45:03.702Z,6.77
2018-06-12T15:47:33.494Z,8.10
2018-06-12T15:50:03.246Z,5.30
2018-06-12T15:52:34.477Z,6.73
2018-06-12T15:55:04.118Z,4.80
2018-06-12T15:57:34.204Z,8.43
2018-06-12T16:00:04.033Z,5.50
2018-06-12T16:02:33.764Z,5.47
2018-06-12T16:05:04.357Z,5.40
2018-06-12T16:07:34.111Z,4.07
2018-06-12T16:10:03.705Z,9.43
2018-06-12T16:12:33.277Z,12.90
2018-06-12T16:15:02.822Z,10.07
2018-06-12T16:17:32.396Z,5.03
2018-06-12T16:20:01.971Z,5.43
2018-06-12T16:22:31.544Z,8.77
2018-06-12T16:25:01.156Z,5.57
2018-06-12T16:27:30.756Z,8.17
2018-06-12T16:30:00.363Z,6.80
2018-06-12T16:32:29.925Z,5.30
2018-06-12T16:34:59.480Z,9.30
2018-06-12T16:37:29.883Z,6.93
2018-06-12T16:39:59.536Z,6.00
2018-06-12T16:42:29.134Z,6.03
2018-06-12T16:44:58.703Z,4.00
2018-06-12T16:47:28.247Z,5.47
2018-06-12T16:49:57.831Z,3.83
2018-06-12T16:52:27.419Z,3.00
2018-06-12T16:54:56.999Z,4.13
2018-06-12T16:57:26.504Z,4.10
2018-06-12T16:59:56.118Z,8.23
2018-06-12T17:02:25.710Z,3.57
2018-06-12T17:04:55.356Z,5.70
2018-06-12T17:07:24.976Z,5.83
2018-06-12T17:09:54.558Z,3.87
2018-06-12T17:12:24.138Z,3.97
2018-06-12T17:14:53.734Z,4.33
2018-06-12T17:17:23.322Z,3.00
2018-06-12T17:19:52.946Z,3.03
2018-06-12T17:22:22.483Z,3.83
2018-06-12T17:24:52.011Z,7.40
2018-06-12T17:27:21.600Z,4.60
2018-06-12T17:29:51.179Z,5.80
2018-06-12T17:32:20.779Z,8.30
2018-06-12T17:34:50.340Z,4.20
2018-06-12T17:37:19.958Z,3.43
2018-06-12T17:39:49.617Z,6.20
2018-06-12T17:42:19.220Z,3.40
2018-06-12T17:44:48.910Z,5.37
2018-06-12T17:47:18.460Z,6.90
2018-06-12T17:49:48.239Z,5.10
2018-06-12T17:52:17.861Z,3.37
2018-06-12T17:54:47.827Z,6.13
2018-06-12T17:57:17.555Z,5.57
2018-06-12T17:59:47.165Z,5.33
2018-06-12T18:02:16.769Z,5.03
2018-06-12T18:04:46.736Z,4.20
2018-06-12T18:07:16.356Z,3.40
2018-06-12T18:09:45.993Z,3.70
2018-06-12T18:12:15.654Z,5.87
2018-06-12T18:14:45.259Z,2.27
2018-06-12T18:17:15.104Z,3.80
2018-06-12T18:19:49.020Z,5.93
2018-06-12T18:22:19.304Z,4.50
2018-06-12T18:24:48.999Z,4.23
2018-06-12T18:27:19.258Z,4.17
2018-06-12T18:29:48.840Z,2.70
2018-06-12T18:32:18.439Z,3.30
2018-06-12T18:34:48.020Z,3.83
2018-06-12T18:37:17.759Z,5.27
2018-06-12T18:39:47.840Z,3.57
2018-06-12T18:42:18.020Z,5.43
2018-06-12T18:44:47.726Z,3.17
2018-06-12T18:47:17.411Z,3.23
2018-06-12T18:49:47.170Z,3.33
2018-06-12T18:52:16.912Z,2.93
2018-06-12T18:54:47.469Z,3.83
2018-06-12T18:57:17.770Z,3.40
2018-06-12T18:59:48.437Z,3.30
2018-06-12T19:02:18.147Z,4.90
2018-06-12T19:04:48.652Z,2.23
2018-06-12T19:07:18.213Z,4.10
2018-06-12T19:09:47.831Z,4.37
2018-06-12T19:12:17.460Z,2.57
2018-06-12T19:14:47.351Z,3.17
2018-06-12T19:17:17.029Z,4.30
2018-06-12T19:19:47.620Z,5.33
2018-06-12T19:22:18.102Z,3.40
2018-06-12T19:24:48.786Z,3.77
2018-06-12T19:27:18.474Z,6.33
2018-06-12T19:29:48.262Z,3.53
2018-06-12T19:32:17.940Z,4.47
2018-06-12T19:34:47.699Z,3.50
2018-06-12T19:37:17.444Z,3.20
2018-06-12T19:39:47.854Z,2.97
2018-06-12T19:42:17.460Z,3.50
2018-06-12T19:44:47.101Z,3.73
2018-06-12T19:47:16.680Z,5.93
2018-06-12T19:49:46.314Z,5.70
2018-06-12T19:52:15.960Z,3.63
2018-06-12T19:54:45.534Z,4.30
2018-06-12T19:57:15.188Z,4.97
2018-06-12T19:59:45.398Z,3.17
2018-06-12T20:02:15.485Z,3.93
2018-06-12T20:04:45.042Z,3.37
2018-06-12T20:07:15.226Z,4.20
2018-06-12T20:09:44.837Z,4.70
2018-06-12T20:12:14.375Z,3.80
2018-06-12T20:14:44.008Z,4.17
2018-06-12T20:17:13.616Z,5.80
2018-06-12T20:19:43.211Z,6.10
2018-06-12T20:22:13.724Z,4.87
2018-06-12T20:24:43.601Z,5.03
2018-06-12T20:27:13.227Z,4.30
2018-06-12T20:29:42.853Z,6.63
2018-06-12T20:32:12.467Z,7.23
2018-06-12T20:34:42.009Z,4.97
2018-06-12T20:37:11.604Z,4.70
2018-06-12T20:39:41.142Z,6.60
2018-06-12T20:42:10.730Z,6.87
2018-06-12T20:44:40.382Z,4.57
2018-06-12T20:53:57.251Z,10.60
2018-06-12T20:56:26.931Z,5.03
2018-06-12T20:58:56.434Z,5.80
2018-06-12T21:01:26.028Z,9.10
2018-06-12T21:03:55.636Z,7.63
2018-06-12T21:06:25.363Z,5.90
2018-06-12T21:08:54.918Z,8.03
2018-06-12T21:11:24.465Z,7.50
2018-06-12T21:13:54.005Z,9.23
2018-06-12T21:16:23.573Z,11.87
2018-06-12T21:18:53.109Z,8.50
2018-06-12T21:21:22.691Z,8.93
2018-06-12T21:23:52.216Z,8.20
2018-06-12T21:26:21.792Z,8.27
2018-06-12T21:28:51.344Z,7.97
2018-06-12T21:31:20.911Z,7.83
2018-06-12T21:33:50.456Z,9.67
2018-06-12T21:36:20.140Z,8.13
2018-06-12T21:38:49.669Z,7.23
2018-06-12T21:41:19.252Z,7.30
2018-06-12T21:43:48.787Z,5.33
2018-06-12T21:46:18.435Z,5.27
2018-06-12T21:48:47.935Z,4.63
2018-06-12T21:51:17.415Z,7.00
2018-06-12T21:53:47.005Z,5.27
2018-06-12T21:56:16.553Z,3.90
2018-06-12T21:58:46.055Z,3.80
2018-06-12T22:01:15.592Z,5.50
2018-06-12T22:03:45.105Z,5.83
2018-06-12T22:06:15.269Z,7.27
2018-06-12T22:08:44.912Z,7.63
2018-06-12T22:11:14.401Z,7.10
2018-06-12T22:13:44.647Z,6.23
2018-06-12T22:16:21.603Z,5.90
2018-06-12T22:18:51.411Z,9.60
2018-06-12T22:21:20.906Z,7.17
2018-06-12T22:23:50.428Z,6.90
2018-06-12T22:26:19.892Z,7.73
2018-06-12T22:28:49.395Z,6.23
2018-06-12T22:31:18.917Z,5.97
2018-06-12T22:33:48.404Z,7.80
2018-06-12T22:36:17.926Z,8.70
2018-06-12T22:38:47.417Z,5.90
2018-06-12T22:41:16.900Z,6.63
2018-06-12T22:43:46.427Z,8.73
2018-06-12T22:46:15.948Z,5.50
2018-06-12T22:48:45.423Z,6.10
2018-06-12T22:51:14.895Z,5.70
2018-06-12T22:53:44.396Z,5.20
2018-06-12T22:56:13.865Z,4.90
2018-06-12T22:58:43.392Z,5.23
2018-06-12T23:01:12.875Z,5.40
2018-06-12T23:03:42.373Z,4.77
2018-06-12T23:06:11.880Z,5.30
2018-06-12T23:08:41.384Z,5.10
2018-06-12T23:11:10.879Z,3.97
2018-06-12T23:13:40.355Z,5.83
2018-06-12T23:16:09.888Z,4.03
2018-06-12T23:18:39.376Z,4.77
2018-06-12T23:21:52.595Z,4.33
2018-06-12T23:24:22.076Z,3.97
2018-06-12T23:26:51.633Z,4.60
2018-06-12T23:29:21.111Z,4.80
2018-06-12T23:31:50.600Z,4.40
2018-06-12T23:34:20.135Z,3.87
2018-06-12T23:36:49.678Z,6.00
2018-06-12T23:39:20.334Z,6.23
2018-06-12T23:41:49.800Z,6.70
2018-06-12T23:44:19.332Z,5.37
2018-06-12T23:46:48.794Z,4.47
2018-06-12T23:49:18.295Z,7.30
2018-06-12T23:51:47.755Z,5.97
2018-06-12T23:54:17.217Z,5.10
2018-06-12T23:56:46.782Z,6.20
2018-06-12T23:59:16.266Z,9.23
